sensor_id;sensor_type;location;lat;lon;timestamp;temperature;humidity
29713;DHT22;16623;53.632;10.016;2023-05-02T00:02:15;12.00;99.90
29713;DHT22;16623;53.632;10.016;2023-05-02T00:04:42;11.90;99.90
29713;DHT22;16623;53.632;10.016;2023-05-02T00:07:07;12.00;99.90
29713;DHT22;16623;53.632;10.016;2023-05-02T00:09:33;12.00;99.90
29713;DHT22;16623;53.632;10.016;2023-05-02T00:12:00;12.00;99.90
29713;DHT22;16623;53.632;10.016;2023-05-02T00:14:26;12.10;99.90
29713;DHT22;16623;53.632;10.016;2023-05-02T00:16:52;12.00;99.90
29713;DHT22;16623;53.632;10.016;2023-05-02T00:19:24;12.00;99.90
29713;DHT22;16623;53.632;10.016;2023-05-02T00:21:49;11.90;99.90
29713;DHT22;16623;53.632;10.016;2023-05-02T00:24:17;11.90;99.90
29713;DHT22;16623;53.632;10.016;2023-05-02T00:26:43;11.80;99.90
29713;DHT22;16623;53.632;10.016;2023-05-02T00:29:08;11.80;99.90
29713;DHT22;16623;53.632;10.016;2023-05-02T00:31:34;11.80;99.90
29713;DHT22;16623;53.632;10.016;2023-05-02T00:34:00;11.80;99.90
29713;DHT22;16623;53.632;10.016;2023-05-02T00:36:26;11.80;99.90
29713;DHT22;16623;53.632;10.016;2023-05-02T00:38:54;11.80;99.90
29713;DHT22;16623;53.632;10.016;2023-05-02T00:41:20;11.80;99.90
29713;DHT22;16623;53.632;10.016;2023-05-02T00:43:45;11.90;99.90
29713;DHT22;16623;53.632;10.016;2023-05-02T00:46:12;11.80;99.90
29713;DHT22;16623;53.632;10.016;2023-05-02T00:51:57;11.90;99.90
29713;DHT22;16623;53.632;10.016;2023-05-02T00:54:23;11.90;99.90
29713;DHT22;16623;53.632;10.016;2023-05-02T00:56:48;12.00;99.90
29713;DHT22;16623;53.632;10.016;2023-05-02T00:59:14;11.80;99.90
29713;DHT22;16623;53.632;10.016;2023-05-02T01:02:12;11.80;99.90
29713;DHT22;16623;53.632;10.016;2023-05-02T01:08:27;11.80;99.90
29713;DHT22;16623;53.632;10.016;2023-05-02T01:11:09;11.80;99.90
29713;DHT22;16623;53.632;10.016;2023-05-02T01:13:37;11.80;99.90
29713;DHT22;16623;53.632;10.016;2023-05-02T01:16:04;11.70;99.90
29713;DHT22;16623;53.632;10.016;2023-05-02T01:18:34;11.70;99.90
29713;DHT22;16623;53.632;10.016;2023-05-02T01:21:05;11.60;99.90
29713;DHT22;16623;53.632;10.016;2023-05-02T01:23:40;11.60;99.90
29713;DHT22;16623;53.632;10.016;2023-05-02T01:26:34;11.50;99.90
29713;DHT22;16623;53.632;10.016;2023-05-02T01:29:04;11.50;99.90
29713;DHT22;16623;53.632;10.016;2023-05-02T01:31:41;11.40;99.90
29713;DHT22;16623;53.632;10.016;2023-05-02T01:34:09;11.50;99.90
29713;DHT22;16623;53.632;10.016;2023-05-02T01:36:37;11.40;99.90
29713;DHT22;16623;53.632;10.016;2023-05-02T01:39:08;11.40;99.90
29713;DHT22;16623;53.632;10.016;2023-05-02T01:41:35;11.40;99.90
29713;DHT22;16623;53.632;10.016;2023-05-02T01:44:03;11.30;99.90
29713;DHT22;16623;53.632;10.016;2023-05-02T01:49:02;11.30;99.90
29713;DHT22;16623;53.632;10.016;2023-05-02T01:51:32;11.30;99.90
29713;DHT22;16623;53.632;10.016;2023-05-02T01:54:01;11.20;99.90
29713;DHT22;16623;53.632;10.016;2023-05-02T01:56:31;11.30;99.90
29713;DHT22;16623;53.632;10.016;2023-05-02T01:58:58;11.30;99.90
29713;DHT22;16623;53.632;10.016;2023-05-02T02:01:25;11.30;99.90
29713;DHT22;16623;53.632;10.016;2023-05-02T02:03:54;11.30;99.90
29713;DHT22;16623;53.632;10.016;2023-05-02T02:06:20;11.30;99.90
29713;DHT22;16623;53.632;10.016;2023-05-02T02:08:46;11.20;99.90
29713;DHT22;16623;53.632;10.016;2023-05-02T02:11:20;11.20;99.90
29713;DHT22;16623;53.632;10.016;2023-05-02T02:13:54;11.30;99.90
29713;DHT22;16623;53.632;10.016;2023-05-02T02:16:24;11.30;99.90
29713;DHT22;16623;53.632;10.016;2023-05-02T02:18:54;11.30;99.90
29713;DHT22;16623;53.632;10.016;2023-05-02T02:21:22;11.20;99.90
29713;DHT22;16623;53.632;10.016;2023-05-02T02:23:51;11.20;99.90
29713;DHT22;16623;53.632;10.016;2023-05-02T02:26:20;11.30;99.90
29713;DHT22;16623;53.632;10.016;2023-05-02T02:28:47;11.20;99.90
29713;DHT22;16623;53.632;10.016;2023-05-02T02:31:13;11.40;99.90
29713;DHT22;16623;53.632;10.016;2023-05-02T02:33:39;11.30;99.90
29713;DHT22;16623;53.632;10.016;2023-05-02T02:36:17;11.30;99.90
29713;DHT22;16623;53.632;10.016;2023-05-02T02:38:49;11.40;99.90
29713;DHT22;16623;53.632;10.016;2023-05-02T02:41:30;11.40;99.90
29713;DHT22;16623;53.632;10.016;2023-05-02T02:49:49;10.80;99.90
29713;DHT22;16623;53.632;10.016;2023-05-02T02:53:14;10.70;99.90
29713;DHT22;16623;53.632;10.016;2023-05-02T02:55:56;10.60;99.90
29713;DHT22;16623;53.632;10.016;2023-05-02T02:58:54;10.20;99.90
29713;DHT22;16623;53.632;10.016;2023-05-02T03:01:23;10.00;99.90
29713;DHT22;16623;53.632;10.016;2023-05-02T03:03:52;10.00;99.90
29713;DHT22;16623;53.632;10.016;2023-05-02T03:06:19;9.90;99.90
29713;DHT22;16623;53.632;10.016;2023-05-02T03:08:45;9.80;99.90
29713;DHT22;16623;53.632;10.016;2023-05-02T03:11:11;9.90;99.90
29713;DHT22;16623;53.632;10.016;2023-05-02T03:13:36;9.80;99.90
29713;DHT22;16623;53.632;10.016;2023-05-02T03:19:06;9.60;99.90
29713;DHT22;16623;53.632;10.016;2023-05-02T03:21:33;9.60;99.90
29713;DHT22;16623;53.632;10.016;2023-05-02T03:24:00;9.50;99.90
29713;DHT22;16623;53.632;10.016;2023-05-02T03:26:26;9.40;99.90
29713;DHT22;16623;53.632;10.016;2023-05-02T03:28:52;9.30;99.90
29713;DHT22;16623;53.632;10.016;2023-05-02T03:31:18;9.10;99.90
29713;DHT22;16623;53.632;10.016;2023-05-02T03:33:44;9.00;99.90
29713;DHT22;16623;53.632;10.016;2023-05-02T03:36:09;8.80;99.90
29713;DHT22;16623;53.632;10.016;2023-05-02T03:38:35;8.70;99.90
29713;DHT22;16623;53.632;10.016;2023-05-02T03:41:01;8.70;99.90
29713;DHT22;16623;53.632;10.016;2023-05-02T03:43:27;8.70;99.90
29713;DHT22;16623;53.632;10.016;2023-05-02T03:45:53;8.70;99.90
29713;DHT22;16623;53.632;10.016;2023-05-02T03:48:18;8.70;99.90
29713;DHT22;16623;53.632;10.016;2023-05-02T03:50:44;8.80;99.90
29713;DHT22;16623;53.632;10.016;2023-05-02T03:53:09;8.80;99.90
29713;DHT22;16623;53.632;10.016;2023-05-02T03:55:42;8.90;99.90
29713;DHT22;16623;53.632;10.016;2023-05-02T03:58:08;8.90;99.90
29713;DHT22;16623;53.632;10.016;2023-05-02T04:00:37;8.90;99.90
29713;DHT22;16623;53.632;10.016;2023-05-02T04:03:03;8.80;99.90
29713;DHT22;16623;53.632;10.016;2023-05-02T04:05:29;8.70;99.90
29713;DHT22;16623;53.632;10.016;2023-05-02T04:07:56;8.70;99.90
29713;DHT22;16623;53.632;10.016;2023-05-02T04:10:21;8.50;99.90
29713;DHT22;16623;53.632;10.016;2023-05-02T04:12:47;8.50;99.90
29713;DHT22;16623;53.632;10.016;2023-05-02T04:15:13;8.50;99.90
29713;DHT22;16623;53.632;10.016;2023-05-02T04:17:38;8.60;99.90
29713;DHT22;16623;53.632;10.016;2023-05-02T04:20:05;8.60;99.90
29713;DHT22;16623;53.632;10.016;2023-05-02T04:22:31;8.70;99.90
29713;DHT22;16623;53.632;10.016;2023-05-02T04:24:57;8.80;99.90
29713;DHT22;16623;53.632;10.016;2023-05-02T04:27:23;8.80;99.90
29713;DHT22;16623;53.632;10.016;2023-05-02T04:29:49;8.80;99.90
29713;DHT22;16623;53.632;10.016;2023-05-02T04:32:20;8.60;99.90
29713;DHT22;16623;53.632;10.016;2023-05-02T04:34:54;8.60;99.90
29713;DHT22;16623;53.632;10.016;2023-05-02T04:37:20;8.60;99.90
29713;DHT22;16623;53.632;10.016;2023-05-02T04:39:45;8.40;99.90
29713;DHT22;16623;53.632;10.016;2023-05-02T04:42:11;8.60;99.90
29713;DHT22;16623;53.632;10.016;2023-05-02T04:44:36;8.70;99.90
29713;DHT22;16623;53.632;10.016;2023-05-02T04:47:02;8.50;99.90
29713;DHT22;16623;53.632;10.016;2023-05-02T04:49:29;8.50;99.90
29713;DHT22;16623;53.632;10.016;2023-05-02T04:51:55;8.50;99.90
29713;DHT22;16623;53.632;10.016;2023-05-02T04:54:20;8.50;99.90
29713;DHT22;16623;53.632;10.016;2023-05-02T04:56:46;8.60;99.90
29713;DHT22;16623;53.632;10.016;2023-05-02T04:59:11;9.10;99.90
29713;DHT22;16623;53.632;10.016;2023-05-02T05:01:48;8.90;99.90
29713;DHT22;16623;53.632;10.016;2023-05-02T05:04:13;8.80;99.90
29713;DHT22;16623;53.632;10.016;2023-05-02T05:06:38;8.80;99.90
29713;DHT22;16623;53.632;10.016;2023-05-02T05:09:04;9.80;99.90
29713;DHT22;16623;53.632;10.016;2023-05-02T05:11:30;8.80;99.90
29713;DHT22;16623;53.632;10.016;2023-05-02T05:13:56;8.90;99.90
29713;DHT22;16623;53.632;10.016;2023-05-02T05:16:21;9.20;99.90
29713;DHT22;16623;53.632;10.016;2023-05-02T05:18:47;9.30;99.90
29713;DHT22;16623;53.632;10.016;2023-05-02T05:21:13;9.10;99.90
29713;DHT22;16623;53.632;10.016;2023-05-02T05:23:39;9.00;99.90
29713;DHT22;16623;53.632;10.016;2023-05-02T05:26:11;9.00;99.90
29713;DHT22;16623;53.632;10.016;2023-05-02T05:28:37;8.80;99.90
29713;DHT22;16623;53.632;10.016;2023-05-02T05:31:11;10.20;99.90
29713;DHT22;16623;53.632;10.016;2023-05-02T05:33:43;8.60;99.90
29713;DHT22;16623;53.632;10.016;2023-05-02T05:36:11;8.60;99.90
29713;DHT22;16623;53.632;10.016;2023-05-02T05:38:37;8.50;99.90
29713;DHT22;16623;53.632;10.016;2023-05-02T05:41:06;8.60;99.90
29713;DHT22;16623;53.632;10.016;2023-05-02T05:43:33;8.60;99.90
29713;DHT22;16623;53.632;10.016;2023-05-02T05:45:58;8.60;99.90
29713;DHT22;16623;53.632;10.016;2023-05-02T05:48:24;8.60;99.90
29713;DHT22;16623;53.632;10.016;2023-05-02T05:50:49;8.70;99.90
29713;DHT22;16623;53.632;10.016;2023-05-02T05:53:17;8.70;99.90
29713;DHT22;16623;53.632;10.016;2023-05-02T05:55:44;8.60;99.90
29713;DHT22;16623;53.632;10.016;2023-05-02T05:58:13;8.70;99.90
29713;DHT22;16623;53.632;10.016;2023-05-02T06:00:51;8.70;99.90
29713;DHT22;16623;53.632;10.016;2023-05-02T06:03:17;8.50;99.90
29713;DHT22;16623;53.632;10.016;2023-05-02T06:05:43;8.40;99.90
29713;DHT22;16623;53.632;10.016;2023-05-02T06:08:09;8.50;99.90
29713;DHT22;16623;53.632;10.016;2023-05-02T06:10:34;8.70;99.90
29713;DHT22;16623;53.632;10.016;2023-05-02T06:13:00;8.70;99.90
29713;DHT22;16623;53.632;10.016;2023-05-02T06:15:25;8.80;99.90
29713;DHT22;16623;53.632;10.016;2023-05-02T06:17:51;8.70;99.90
29713;DHT22;16623;53.632;10.016;2023-05-02T06:20:17;9.20;99.90
29713;DHT22;16623;53.632;10.016;2023-05-02T06:22:42;8.80;99.90
29713;DHT22;16623;53.632;10.016;2023-05-02T06:25:08;8.80;99.90
29713;DHT22;16623;53.632;10.016;2023-05-02T06:27:34;8.80;99.90
29713;DHT22;16623;53.632;10.016;2023-05-02T06:29:59;8.90;99.90
29713;DHT22;16623;53.632;10.016;2023-05-02T06:32:29;8.80;99.90
29713;DHT22;16623;53.632;10.016;2023-05-02T06:34:55;8.80;99.90
29713;DHT22;16623;53.632;10.016;2023-05-02T06:37:21;8.80;99.90
29713;DHT22;16623;53.632;10.016;2023-05-02T06:39:46;8.70;99.90
29713;DHT22;16623;53.632;10.016;2023-05-02T06:42:12;8.80;99.90
29713;DHT22;16623;53.632;10.016;2023-05-02T06:44:37;8.70;99.90
29713;DHT22;16623;53.632;10.016;2023-05-02T06:47:03;8.80;99.90
29713;DHT22;16623;53.632;10.016;2023-05-02T06:49:30;8.80;99.90
29713;DHT22;16623;53.632;10.016;2023-05-02T06:51:56;8.80;99.90
29713;DHT22;16623;53.632;10.016;2023-05-02T06:54:21;8.80;99.90
29713;DHT22;16623;53.632;10.016;2023-05-02T06:56:46;9.50;99.90
29713;DHT22;16623;53.632;10.016;2023-05-02T06:59:12;8.80;99.90
29713;DHT22;16623;53.632;10.016;2023-05-02T07:01:39;8.80;99.90
29713;DHT22;16623;53.632;10.016;2023-05-02T07:04:14;8.90;99.90
29713;DHT22;16623;53.632;10.016;2023-05-02T07:06:39;9.10;99.90
29713;DHT22;16623;53.632;10.016;2023-05-02T07:09:28;9.10;99.90
29713;DHT22;16623;53.632;10.016;2023-05-02T07:12:01;9.10;99.90
29713;DHT22;16623;53.632;10.016;2023-05-02T07:14:33;9.10;99.90
29713;DHT22;16623;53.632;10.016;2023-05-02T07:16:59;9.10;99.90
29713;DHT22;16623;53.632;10.016;2023-05-02T07:19:24;9.30;99.90
29713;DHT22;16623;53.632;10.016;2023-05-02T07:21:50;9.40;99.90
29713;DHT22;16623;53.632;10.016;2023-05-02T07:24:15;9.50;99.90
29713;DHT22;16623;53.632;10.016;2023-05-02T07:26:41;9.60;99.90
29713;DHT22;16623;53.632;10.016;2023-05-02T07:29:06;9.70;99.90
29713;DHT22;16623;53.632;10.016;2023-05-02T07:31:33;9.90;99.90
29713;DHT22;16623;53.632;10.016;2023-05-02T07:33:58;9.90;99.90
29713;DHT22;16623;53.632;10.016;2023-05-02T07:36:24;9.70;99.90
29713;DHT22;16623;53.632;10.016;2023-05-02T07:38:50;9.80;99.90
29713;DHT22;16623;53.632;10.016;2023-05-02T07:41:16;9.70;99.90
29713;DHT22;16623;53.632;10.016;2023-05-02T07:43:41;9.90;99.90
29713;DHT22;16623;53.632;10.016;2023-05-02T07:46:07;9.80;99.90
29713;DHT22;16623;53.632;10.016;2023-05-02T07:48:32;9.80;99.90
29713;DHT22;16623;53.632;10.016;2023-05-02T07:51:09;9.80;99.90
29713;DHT22;16623;53.632;10.016;2023-05-02T07:53:35;9.90;99.90
29713;DHT22;16623;53.632;10.016;2023-05-02T07:56:03;10.10;99.90
29713;DHT22;16623;53.632;10.016;2023-05-02T07:58:30;10.20;99.90
29713;DHT22;16623;53.632;10.016;2023-05-02T08:00:56;10.20;99.90
29713;DHT22;16623;53.632;10.016;2023-05-02T08:03:21;10.30;99.90
29713;DHT22;16623;53.632;10.016;2023-05-02T08:05:47;10.20;99.90
29713;DHT22;16623;53.632;10.016;2023-05-02T08:08:12;10.00;99.90
29713;DHT22;16623;53.632;10.016;2023-05-02T08:10:38;10.10;99.90
29713;DHT22;16623;53.632;10.016;2023-05-02T08:13:03;10.20;99.90
29713;DHT22;16623;53.632;10.016;2023-05-02T08:15:29;10.00;99.90
29713;DHT22;16623;53.632;10.016;2023-05-02T08:17:55;10.10;99.90
29713;DHT22;16623;53.632;10.016;2023-05-02T08:20:20;10.10;99.30
29713;DHT22;16623;53.632;10.016;2023-05-02T08:22:47;10.10;99.90
29713;DHT22;16623;53.632;10.016;2023-05-02T08:25:14;10.20;99.90
29713;DHT22;16623;53.632;10.016;2023-05-02T08:27:39;10.30;99.30
29713;DHT22;16623;53.632;10.016;2023-05-02T08:30:05;10.50;99.40
29713;DHT22;16623;53.632;10.016;2023-05-02T08:32:31;10.60;99.10
29713;DHT22;16623;53.632;10.016;2023-05-02T08:34:57;10.60;98.80
29713;DHT22;16623;53.632;10.016;2023-05-02T08:37:22;10.60;98.80
29713;DHT22;16623;53.632;10.016;2023-05-02T08:39:48;10.70;99.10
29713;DHT22;16623;53.632;10.016;2023-05-02T08:42:14;10.70;98.10
29713;DHT22;16623;53.632;10.016;2023-05-02T08:44:40;10.80;98.20
29713;DHT22;16623;53.632;10.016;2023-05-02T08:47:05;10.90;98.10
29713;DHT22;16623;53.632;10.016;2023-05-02T08:49:36;10.70;98.10
29713;DHT22;16623;53.632;10.016;2023-05-02T08:52:03;10.70;97.80
29713;DHT22;16623;53.632;10.016;2023-05-02T08:54:31;10.70;97.70
29713;DHT22;16623;53.632;10.016;2023-05-02T08:56:57;10.80;97.40
29713;DHT22;16623;53.632;10.016;2023-05-02T08:59:24;10.70;97.30
29713;DHT22;16623;53.632;10.016;2023-05-02T09:01:54;10.90;97.50
29713;DHT22;16623;53.632;10.016;2023-05-02T09:04:24;10.90;97.80
29713;DHT22;16623;53.632;10.016;2023-05-02T09:06:52;11.10;97.40
29713;DHT22;16623;53.632;10.016;2023-05-02T09:09:17;11.00;96.80
29713;DHT22;16623;53.632;10.016;2023-05-02T09:11:46;11.10;96.70
29713;DHT22;16623;53.632;10.016;2023-05-02T09:14:15;11.10;96.50
29713;DHT22;16623;53.632;10.016;2023-05-02T09:16:41;11.20;95.60
29713;DHT22;16623;53.632;10.016;2023-05-02T09:19:07;11.50;95.50
29713;DHT22;16623;53.632;10.016;2023-05-02T09:21:37;11.70;95.90
29713;DHT22;16623;53.632;10.016;2023-05-02T09:24:24;12.00;94.50
29713;DHT22;16623;53.632;10.016;2023-05-02T09:29:26;12.60;92.80
29713;DHT22;16623;53.632;10.016;2023-05-02T09:31:52;12.10;92.00
29713;DHT22;16623;53.632;10.016;2023-05-02T09:34:18;12.00;93.30
29713;DHT22;16623;53.632;10.016;2023-05-02T09:36:48;12.20;94.00
29713;DHT22;16623;53.632;10.016;2023-05-02T09:39:26;12.40;93.20
29713;DHT22;16623;53.632;10.016;2023-05-02T09:41:53;12.40;92.30
29713;DHT22;16623;53.632;10.016;2023-05-02T09:44:24;12.60;92.20
29713;DHT22;16623;53.632;10.016;2023-05-02T09:46:54;12.90;92.20
29713;DHT22;16623;53.632;10.016;2023-05-02T09:49:39;12.70;91.50
29713;DHT22;16623;53.632;10.016;2023-05-02T09:52:16;12.80;92.00
29713;DHT22;16623;53.632;10.016;2023-05-02T09:54:42;12.30;91.80
29713;DHT22;16623;53.632;10.016;2023-05-02T09:57:08;12.20;92.90
29713;DHT22;16623;53.632;10.016;2023-05-02T09:59:35;11.90;93.20
29713;DHT22;16623;53.632;10.016;2023-05-02T10:02:03;11.80;93.50
29713;DHT22;16623;53.632;10.016;2023-05-02T10:04:31;11.90;93.70
29713;DHT22;16623;53.632;10.016;2023-05-02T10:06:56;12.00;93.40
29713;DHT22;16623;53.632;10.016;2023-05-02T10:09:22;12.20;93.10
29713;DHT22;16623;53.632;10.016;2023-05-02T10:11:54;12.30;93.30
29713;DHT22;16623;53.632;10.016;2023-05-02T10:14:21;12.40;93.40
29713;DHT22;16623;53.632;10.016;2023-05-02T10:17:12;12.30;93.60
29713;DHT22;16623;53.632;10.016;2023-05-02T10:20:04;12.10;94.00
29713;DHT22;16623;53.632;10.016;2023-05-02T10:22:32;12.00;94.80
29713;DHT22;16623;53.632;10.016;2023-05-02T10:24:58;12.10;95.00
29713;DHT22;16623;53.632;10.016;2023-05-02T10:27:26;11.90;95.60
29713;DHT22;16623;53.632;10.016;2023-05-02T10:29:53;11.90;94.50
29713;DHT22;16623;53.632;10.016;2023-05-02T10:32:21;11.80;94.10
29713;DHT22;16623;53.632;10.016;2023-05-02T10:34:49;12.50;94.20
29713;DHT22;16623;53.632;10.016;2023-05-02T10:37:16;13.00;92.90
29713;DHT22;16623;53.632;10.016;2023-05-02T10:39:42;13.10;91.40
29713;DHT22;16623;53.632;10.016;2023-05-02T10:42:08;13.30;91.40
29713;DHT22;16623;53.632;10.016;2023-05-02T10:44:35;13.30;91.40
29713;DHT22;16623;53.632;10.016;2023-05-02T10:47:23;13.20;91.50
29713;DHT22;16623;53.632;10.016;2023-05-02T10:49:59;13.60;91.70
29713;DHT22;16623;53.632;10.016;2023-05-02T10:52:32;14.00;91.10
29713;DHT22;16623;53.632;10.016;2023-05-02T10:55:22;14.20;90.70
29713;DHT22;16623;53.632;10.016;2023-05-02T11:00:26;14.40;89.10
29713;DHT22;16623;53.632;10.016;2023-05-02T11:02:52;13.90;87.40
29713;DHT22;16623;53.632;10.016;2023-05-02T11:05:18;13.20;90.80
29713;DHT22;16623;53.632;10.016;2023-05-02T11:07:43;13.00;91.50
29713;DHT22;16623;53.632;10.016;2023-05-02T11:12:54;12.50;92.40
29713;DHT22;16623;53.632;10.016;2023-05-02T11:18:02;12.30;92.80
29713;DHT22;16623;53.632;10.016;2023-05-02T11:20:29;12.20;92.00
29713;DHT22;16623;53.632;10.016;2023-05-02T11:23:18;12.30;91.90
29713;DHT22;16623;53.632;10.016;2023-05-02T11:25:54;12.40;92.10
29713;DHT22;16623;53.632;10.016;2023-05-02T11:28:39;12.80;91.70
29713;DHT22;16623;53.632;10.016;2023-05-02T11:33:57;12.80;90.90
29713;DHT22;16623;53.632;10.016;2023-05-02T11:36:27;12.70;91.40
29713;DHT22;16623;53.632;10.016;2023-05-02T11:38:54;12.70;92.30
29713;DHT22;16623;53.632;10.016;2023-05-02T11:41:19;12.70;92.70
29713;DHT22;16623;53.632;10.016;2023-05-02T11:43:45;12.70;93.00
29713;DHT22;16623;53.632;10.016;2023-05-02T11:46:10;12.50;92.60
29713;DHT22;16623;53.632;10.016;2023-05-02T11:48:37;12.40;92.80
29713;DHT22;16623;53.632;10.016;2023-05-02T11:51:02;12.40;91.30
29713;DHT22;16623;53.632;10.016;2023-05-02T11:53:30;12.30;91.00
29713;DHT22;16623;53.632;10.016;2023-05-02T11:55:59;12.50;91.30
29713;DHT22;16623;53.632;10.016;2023-05-02T11:58:27;12.70;90.80
29713;DHT22;16623;53.632;10.016;2023-05-02T12:01:15;12.90;91.30
29713;DHT22;16623;53.632;10.016;2023-05-02T12:03:41;13.00;90.50
29713;DHT22;16623;53.632;10.016;2023-05-02T12:06:09;13.10;90.30
29713;DHT22;16623;53.632;10.016;2023-05-02T12:08:35;13.00;90.00
29713;DHT22;16623;53.632;10.016;2023-05-02T12:11:01;13.00;90.10
29713;DHT22;16623;53.632;10.016;2023-05-02T12:13:27;12.80;89.40
29713;DHT22;16623;53.632;10.016;2023-05-02T12:15:54;12.70;88.90
29713;DHT22;16623;53.632;10.016;2023-05-02T12:18:21;12.50;90.50
29713;DHT22;16623;53.632;10.016;2023-05-02T12:20:49;12.30;90.80
29713;DHT22;16623;53.632;10.016;2023-05-02T12:23:16;12.20;91.20
29713;DHT22;16623;53.632;10.016;2023-05-02T12:25:44;12.20;91.10
29713;DHT22;16623;53.632;10.016;2023-05-02T12:28:10;12.20;90.70
29713;DHT22;16623;53.632;10.016;2023-05-02T12:30:37;12.20;90.30
29713;DHT22;16623;53.632;10.016;2023-05-02T12:33:05;12.20;90.20
29713;DHT22;16623;53.632;10.016;2023-05-02T12:35:31;12.10;90.30
29713;DHT22;16623;53.632;10.016;2023-05-02T12:38:14;12.20;88.80
29713;DHT22;16623;53.632;10.016;2023-05-02T12:40:51;12.10;90.00
29713;DHT22;16623;53.632;10.016;2023-05-02T12:43:18;12.20;89.70
29713;DHT22;16623;53.632;10.016;2023-05-02T12:45:45;12.10;89.50
29713;DHT22;16623;53.632;10.016;2023-05-02T12:48:26;12.00;90.50
29713;DHT22;16623;53.632;10.016;2023-05-02T12:50:53;12.10;90.40
29713;DHT22;16623;53.632;10.016;2023-05-02T12:53:43;12.10;90.90
29713;DHT22;16623;53.632;10.016;2023-05-02T12:56:10;12.00;90.50
29713;DHT22;16623;53.632;10.016;2023-05-02T12:58:46;11.90;91.30
29713;DHT22;16623;53.632;10.016;2023-05-02T13:01:12;11.90;91.40
29713;DHT22;16623;53.632;10.016;2023-05-02T13:03:38;12.00;91.00
29713;DHT22;16623;53.632;10.016;2023-05-02T13:06:05;12.10;91.40
29713;DHT22;16623;53.632;10.016;2023-05-02T13:08:34;12.10;91.50
29713;DHT22;16623;53.632;10.016;2023-05-02T13:11:01;12.00;91.60
29713;DHT22;16623;53.632;10.016;2023-05-02T13:13:30;12.00;91.40
29713;DHT22;16623;53.632;10.016;2023-05-02T13:16:12;12.20;91.30
29713;DHT22;16623;53.632;10.016;2023-05-02T13:18:37;12.00;91.90
29713;DHT22;16623;53.632;10.016;2023-05-02T13:21:06;12.20;90.60
29713;DHT22;16623;53.632;10.016;2023-05-02T13:23:31;12.30;90.90
29713;DHT22;16623;53.632;10.016;2023-05-02T13:25:57;12.40;91.00
29713;DHT22;16623;53.632;10.016;2023-05-02T13:28:23;12.50;90.40
29713;DHT22;16623;53.632;10.016;2023-05-02T13:30:50;12.40;90.90
29713;DHT22;16623;53.632;10.016;2023-05-02T13:33:15;12.50;90.80
29713;DHT22;16623;53.632;10.016;2023-05-02T13:35:41;12.50;90.80
29713;DHT22;16623;53.632;10.016;2023-05-02T13:38:07;12.60;90.30
29713;DHT22;16623;53.632;10.016;2023-05-02T13:40:32;12.70;89.30
29713;DHT22;16623;53.632;10.016;2023-05-02T13:42:58;12.80;89.30
29713;DHT22;16623;53.632;10.016;2023-05-02T13:45:23;13.00;87.80
29713;DHT22;16623;53.632;10.016;2023-05-02T13:47:49;13.00;88.30
29713;DHT22;16623;53.632;10.016;2023-05-02T13:50:14;13.00;88.00
29713;DHT22;16623;53.632;10.016;2023-05-02T13:52:40;12.80;88.40
29713;DHT22;16623;53.632;10.016;2023-05-02T13:55:06;12.70;90.00
29713;DHT22;16623;53.632;10.016;2023-05-02T13:57:33;12.50;90.40
29713;DHT22;16623;53.632;10.016;2023-05-02T14:00:10;12.50;91.00
29713;DHT22;16623;53.632;10.016;2023-05-02T14:02:38;12.40;90.50
29713;DHT22;16623;53.632;10.016;2023-05-02T14:05:04;12.20;90.70
29713;DHT22;16623;53.632;10.016;2023-05-02T14:07:29;12.00;91.30
29713;DHT22;16623;53.632;10.016;2023-05-02T14:09:55;12.00;91.60
29713;DHT22;16623;53.632;10.016;2023-05-02T14:12:21;12.00;91.40
29713;DHT22;16623;53.632;10.016;2023-05-02T14:14:46;12.10;90.20
29713;DHT22;16623;53.632;10.016;2023-05-02T14:17:12;12.20;90.10
29713;DHT22;16623;53.632;10.016;2023-05-02T14:19:37;12.30;90.40
29713;DHT22;16623;53.632;10.016;2023-05-02T14:22:03;12.30;90.50
29713;DHT22;16623;53.632;10.016;2023-05-02T14:24:32;12.20;90.30
29713;DHT22;16623;53.632;10.016;2023-05-02T14:26:58;12.30;90.10
29713;DHT22;16623;53.632;10.016;2023-05-02T14:29:23;12.40;90.40
29713;DHT22;16623;53.632;10.016;2023-05-02T14:31:49;12.40;89.90
29713;DHT22;16623;53.632;10.016;2023-05-02T14:34:14;12.10;89.50
29713;DHT22;16623;53.632;10.016;2023-05-02T14:36:40;12.20;89.00
29713;DHT22;16623;53.632;10.016;2023-05-02T14:39:11;12.20;89.10
29713;DHT22;16623;53.632;10.016;2023-05-02T14:41:37;12.20;89.60
29713;DHT22;16623;53.632;10.016;2023-05-02T14:44:03;12.30;89.90
29713;DHT22;16623;53.632;10.016;2023-05-02T14:46:28;12.40;90.00
29713;DHT22;16623;53.632;10.016;2023-05-02T14:48:53;12.40;89.80
29713;DHT22;16623;53.632;10.016;2023-05-02T14:51:19;12.50;89.10
29713;DHT22;16623;53.632;10.016;2023-05-02T14:53:48;12.60;88.20
29713;DHT22;16623;53.632;10.016;2023-05-02T14:56:13;12.80;86.50
29713;DHT22;16623;53.632;10.016;2023-05-02T14:58:41;12.80;86.30
29713;DHT22;16623;53.632;10.016;2023-05-02T15:01:14;12.80;86.50
29713;DHT22;16623;53.632;10.016;2023-05-02T15:03:40;12.70;87.10
29713;DHT22;16623;53.632;10.016;2023-05-02T15:06:06;12.70;87.30
29713;DHT22;16623;53.632;10.016;2023-05-02T15:08:31;12.50;88.00
29713;DHT22;16623;53.632;10.016;2023-05-02T15:10:57;12.40;88.70
29713;DHT22;16623;53.632;10.016;2023-05-02T15:13:22;12.20;88.90
29713;DHT22;16623;53.632;10.016;2023-05-02T15:15:48;12.20;89.90
29713;DHT22;16623;53.632;10.016;2023-05-02T15:18:13;12.20;90.20
29713;DHT22;16623;53.632;10.016;2023-05-02T15:20:39;12.40;90.00
29713;DHT22;16623;53.632;10.016;2023-05-02T15:23:05;12.60;89.60
29713;DHT22;16623;53.632;10.016;2023-05-02T15:25:31;12.70;89.50
29713;DHT22;16623;53.632;10.016;2023-05-02T15:27:56;12.90;89.60
29713;DHT22;16623;53.632;10.016;2023-05-02T15:30:22;12.90;89.40
29713;DHT22;16623;53.632;10.016;2023-05-02T15:32:47;13.10;90.30
29713;DHT22;16623;53.632;10.016;2023-05-02T15:35:13;13.20;87.80
29713;DHT22;16623;53.632;10.016;2023-05-02T15:37:38;13.10;87.70
29713;DHT22;16623;53.632;10.016;2023-05-02T15:40:06;13.10;86.60
29713;DHT22;16623;53.632;10.016;2023-05-02T15:42:34;12.90;87.00
29713;DHT22;16623;53.632;10.016;2023-05-02T15:45:00;12.70;88.30
29713;DHT22;16623;53.632;10.016;2023-05-02T15:47:26;12.50;90.20
29713;DHT22;16623;53.632;10.016;2023-05-02T15:49:52;12.50;90.30
29713;DHT22;16623;53.632;10.016;2023-05-02T15:52:19;12.40;90.00
29713;DHT22;16623;53.632;10.016;2023-05-02T15:54:45;12.30;90.60
29713;DHT22;16623;53.632;10.016;2023-05-02T15:57:11;12.40;89.90
29713;DHT22;16623;53.632;10.016;2023-05-02T15:59:37;12.30;90.40